Terminal Aerodrome Forecast
Issued by NWS Knoxville/Tri Cities, TN

Home | Current Version | Previous Version | Text Only | Print | Product List | Glossary On
Versions: 1 2 3 4 5 6 7 8 9 10 11 12 13 14
000
FTUS44 KMRX 271729
TAFTRI
TAF
KTRI 271729Z 2718/2818 30005KT P6SM SCT120 BKN200
     FM272300 VRB03KT P6SM SKC
     FM280900 00000KT 5SM BR SCT002
      TEMPO 2810/2812 2SM BR BKN002
     FM281300 VRB03KT P6SM SKC=

USA.gov is the U.S. government's official web portal to all federal, state and local government web resources and services.